Time;durP1;ratioP1;P1;durP2;ratioP2;P2;SDS_P1;SDS_P2;PMS_P1;PMS_P2;Temp;Humidity;BMP_temperature;BMP_pressure;BME280_temperature;BME280_humidity;BME280_pressure;Samples;Min_cycle;Max_cycle;Signal;HPM_P1;HPM_P2
2023/02/27 00:01:46;;;;;;;3.83;1.55;;;;;;;4.26;59.41;99747.69;4471123;31;20111;-88
2023/02/27 00:04:11;;;;;;;2.50;1.58;;;;;;;4.20;59.42;99747.69;4458671;32;20132;-87
2023/02/27 00:06:37;;;;;;;6.20;2.10;;;;;;;4.29;59.42;99752.81;4484618;31;20112;-89
2023/02/27 00:09:03;;;;;;;4.15;2.05;;;;;;;4.29;59.42;99761.41;4477830;31;20144;-89
2023/02/27 00:11:28;;;;;;;3.35;1.73;;;;;;;4.23;59.41;99764.00;4475330;31;20096;-89
2023/02/27 00:13:56;;;;;;;5.18;1.90;;;;;;;4.08;59.41;99771.81;4458967;32;20198;-89
2023/02/27 00:16:22;;;;;;;6.30;2.10;;;;;;;4.29;59.42;99763.97;4485216;31;20181;-89
2023/02/27 00:18:47;;;;;;;3.95;1.77;;;;;;;4.04;59.40;99767.56;4472469;32;20145;-88
2023/02/27 00:21:13;;;;;;;3.83;1.90;;;;;;;4.08;59.41;99766.66;4486323;31;20143;-89
2023/02/27 00:23:38;;;;;;;4.10;1.60;;;;;;;4.25;59.41;99774.28;4475735;32;20097;-89
2023/02/27 00:26:03;;;;;;;5.12;2.10;;;;;;;4.32;59.42;99776.84;4467686;32;20140;-88
2023/02/27 00:28:29;;;;;;;3.53;2.15;;;;;;;3.93;59.40;99782.19;4481968;32;20104;-89
2023/02/27 00:30:55;;;;;;;4.12;1.83;;;;;;;3.80;59.39;99781.41;4464852;32;20118;-90
2023/02/27 00:33:20;;;;;;;6.37;2.62;;;;;;;3.99;59.40;99790.75;4462280;31;20157;-89
2023/02/27 00:35:56;;;;;;;3.55;1.95;;;;;;;3.94;59.40;99792.47;4471341;32;20108;-88
2023/02/27 00:38:22;;;;;;;4.40;2.00;;;;;;;3.89;59.39;99799.38;4461330;32;20139;-90
2023/02/27 00:40:47;;;;;;;4.78;2.50;;;;;;;3.92;59.40;99795.94;4471277;31;20141;-88
2023/02/27 00:43:12;;;;;;;6.25;1.92;;;;;;;4.06;59.41;99807.03;4485758;31;20084;-89
2023/02/27 00:45:38;;;;;;;4.95;2.12;;;;;;;3.77;59.39;99808.84;4465409;31;20422;-89
2023/02/27 00:48:03;;;;;;;7.50;2.40;;;;;;;3.86;59.40;99809.69;4471384;32;20097;-89
2023/02/27 00:50:29;;;;;;;4.75;2.25;;;;;;;3.79;59.39;99810.59;4457918;31;20142;-89
2023/02/27 00:52:54;;;;;;;3.72;2.08;;;;;;;3.88;59.39;99815.69;4463613;31;20160;-89
2023/02/27 00:55:19;;;;;;;4.20;2.17;;;;;;;3.79;59.39;99810.59;4475828;31;20183;-89
2023/02/27 00:57:45;;;;;;;3.37;1.60;;;;;;;3.88;59.39;99810.53;4485400;31;20120;-88
2023/02/27 01:00:12;;;;;;;3.53;1.90;;;;;;;3.72;59.39;99811.44;4484202;31;20107;-89
2023/02/27 01:02:37;;;;;;;5.43;2.40;;;;;;;3.95;59.40;99819.09;4484229;32;20407;-89
2023/02/27 01:05:03;;;;;;;2.03;1.55;;;;;;;3.77;59.39;99817.44;4466413;31;20126;-88
2023/02/27 01:07:29;;;;;;;5.57;2.05;;;;;;;3.61;59.38;99816.66;4471216;32;20096;-88
2023/02/27 01:09:54;;;;;;;4.40;2.15;;;;;;;3.65;59.39;99823.50;4485049;31;20140;-90
2023/02/27 01:12:19;;;;;;;4.05;2.20;;;;;;;3.87;59.39;99828.56;4469726;32;20176;-86
2023/02/27 01:14:45;;;;;;;5.28;2.47;;;;;;;3.77;59.39;99827.72;4457608;31;20134;-88
2023/02/27 01:17:11;;;;;;;7.10;2.47;;;;;;;3.55;59.38;99831.22;4464236;31;20100;-88
2023/02/27 01:19:36;;;;;;;5.80;2.60;;;;;;;3.43;59.37;99826.13;4485567;31;20139;-89
2023/02/27 01:22:01;;;;;;;7.28;2.25;;;;;;;3.50;59.37;99827.81;4473726;31;20127;-88
2023/02/27 01:24:27;;;;;;;4.65;2.15;;;;;;;3.48;59.38;99835.53;4470587;31;20134;-87
2023/02/27 01:26:52;;;;;;;5.37;2.42;;;;;;;3.47;59.38;99832.97;4482852;31;20092;-87
2023/02/27 01:29:18;;;;;;;5.28;2.05;;;;;;;3.48;59.38;99829.53;4484435;32;20182;-87
2023/02/27 01:31:43;;;;;;;5.80;2.45;;;;;;;3.33;59.37;99838.16;4484065;31;20341;-88
2023/02/27 01:34:08;;;;;;;4.78;2.22;;;;;;;3.47;59.38;99832.97;4470953;32;20179;-88
2023/02/27 01:36:34;;;;;;;3.95;2.50;;;;;;;3.38;59.36;99837.28;4468551;32;20155;-87
2023/02/27 01:38:59;;;;;;;5.85;2.62;;;;;;;3.44;59.36;99827.84;4484198;31;20099;-88
2023/02/27 01:41:25;;;;;;;4.82;2.12;;;;;;;3.21;59.36;99833.87;4471464;32;20080;-89
2023/02/27 01:44:01;;;;;;;6.47;2.75;;;;;;;3.26;59.36;99831.28;4468203;31;20152;-88
2023/02/27 01:46:28;;;;;;;6.45;2.50;;;;;;;3.45;59.37;99834.69;4473426;32;20135;-87
2023/02/27 01:49:04;;;;;;;5.85;2.50;;;;;;;3.16;59.35;99839.88;4458920;31;20393;-88
2023/02/27 01:51:33;;;;;;;5.30;1.95;;;;;;;3.03;59.35;99845.00;4461983;32;20100;-88
2023/02/27 01:53:59;;;;;;;5.18;2.37;;;;;;;3.21;59.36;99844.16;4471046;31;20101;-88
2023/02/27 01:56:27;;;;;;;3.45;2.20;;;;;;;3.14;59.35;99845.03;4462657;32;20151;-88
2023/02/27 01:58:55;;;;;;;3.37;2.15;;;;;;;3.11;59.35;99841.59;4471071;31;20146;-89
2023/02/27 02:01:20;;;;;;;4.47;2.20;;;;;;;3.17;59.36;99842.44;4466277;31;20157;-89
2023/02/27 02:03:57;;;;;;;4.87;2.15;;;;;;;3.06;59.35;99850.16;4489240;31;20132;-88
2023/02/27 02:06:22;;;;;;;4.82;2.75;;;;;;;3.11;59.35;99850.19;4487555;31;20505;-88
2023/02/27 02:08:49;;;;;;;4.28;1.87;;;;;;;3.26;59.36;99855.28;4470655;32;20096;-89
2023/02/27 02:11:15;;;;;;;6.10;2.72;;;;;;;3.31;59.35;99855.28;4480726;31;20452;-88
2023/02/27 02:13:40;;;;;;;4.00;2.22;;;;;;;3.33;59.36;99854.44;4471415;32;20183;-89
2023/02/27 02:16:18;;;;;;;3.42;2.25;;;;;;;3.50;59.37;99856.13;4483828;32;20092;-88
2023/02/27 02:18:48;;;;;;;5.28;2.05;;;;;;;3.62;59.38;99874.13;4483638;32;20138;-87
2023/02/27 02:21:26;;;;;;;4.68;2.15;;;;;;;3.60;59.38;99874.13;4483768;31;20156;-88
2023/02/27 02:24:01;;;;;;;4.72;2.15;;;;;;;3.73;59.39;99874.94;4483449;32;20105;-87
2023/02/27 02:26:31;;;;;;;3.53;2.22;;;;;;;3.67;59.38;99882.69;4483772;32;20122;-87
2023/02/27 02:29:15;;;;;;;4.62;2.47;;;;;;;3.65;59.38;99884.41;4472276;32;20092;-92
2023/02/27 02:32:15;;;;;;;4.68;2.85;;;;;;;3.82;59.39;99876.66;4485481;31;20069;-93
2023/02/27 02:35:15;;;;;;;5.17;2.40;;;;;;;3.73;59.39;99877.53;4482700;31;20523;-92
2023/02/27 02:38:14;;;;;;;5.30;2.15;;;;;;;3.69;59.39;99879.25;4485923;31;20180;-91
2023/02/27 02:41:03;;;;;;;6.93;2.20;;;;;;;3.73;59.39;99890.41;4479874;32;20091;-92
2023/02/27 02:43:33;;;;;;;5.78;2.15;;;;;;;3.80;59.39;99886.97;4482465;32;20105;-93
2023/02/27 02:46:09;;;;;;;4.10;1.90;;;;;;;3.68;59.38;99889.56;4470367;31;20139;-93
2023/02/27 02:48:55;;;;;;;3.40;2.03;;;;;;;3.82;59.39;99885.25;4468900;31;20792;-93
2023/02/27 02:51:40;;;;;;;8.02;2.10;;;;;;;3.96;59.39;99882.62;4473353;32;20795;-94
2023/02/27 02:54:15;;;;;;;4.45;1.92;;;;;;;3.84;59.40;99888.66;4472458;31;20134;-90
2023/02/27 02:56:45;;;;;;;7.65;2.75;;;;;;;3.89;59.39;99899.81;4465182;32;20104;-92
2023/02/27 02:59:38;;;;;;;3.47;2.03;;;;;;;3.74;59.38;99910.13;4475036;31;20112;-95
2023/02/27 03:02:11;;;;;;;4.07;2.10;;;;;;;3.94;59.40;99902.37;4473842;32;20102;-93
2023/02/27 03:04:40;;;;;;;4.57;2.37;;;;;;;3.90;59.40;99904.09;4473987;32;20088;-94
2023/02/27 03:07:33;;;;;;;7.55;2.62;;;;;;;3.87;59.39;99904.09;4486078;32;20514;-92
2023/02/27 03:10:08;;;;;;;5.22;2.50;;;;;;;3.77;59.40;99901.53;4456401;31;20107;-93
2023/02/27 03:12:33;;;;;;;4.20;2.40;;;;;;;3.84;59.40;99909.28;4465434;32;20807;-92
2023/02/27 03:15:05;;;;;;;4.20;2.03;;;;;;;3.82;59.39;99912.72;4460171;32;20405;-92
2023/02/27 03:17:37;;;;;;;5.93;2.85;;;;;;;3.87;59.39;99913.56;4459120;32;20109;-92
2023/02/27 03:20:05;;;;;;;7.50;2.30;;;;;;;3.79;59.39;99921.31;4486629;31;20171;-91
2023/02/27 03:22:34;;;;;;;4.93;2.40;;;;;;;3.69;59.39;99914.44;4471441;32;20089;-89
2023/02/27 03:25:00;;;;;;;4.20;2.10;;;;;;;3.61;59.38;99919.59;4473140;32;20068;-93
2023/02/27 03:27:29;;;;;;;6.00;2.75;;;;;;;3.75;59.38;99926.44;4466491;32;20123;-91
2023/02/27 03:30:10;;;;;;;5.50;2.80;;;;;;;3.79;59.40;99931.59;4469637;32;20465;-92
2023/02/27 03:32:44;;;;;;;4.78;2.42;;;;;;;4.02;59.40;99928.94;4465931;32;20104;-92
2023/02/27 03:35:13;;;;;;;4.97;2.47;;;;;;;3.90;59.40;99931.56;4472735;32;20096;-92
2023/02/27 03:38:11;;;;;;;4.68;2.90;;;;;;;4.12;59.42;99935.81;4460398;31;20131;-91
2023/02/27 03:40:40;;;;;;;3.40;2.53;;;;;;;3.96;59.40;99934.13;4484615;32;20065;-92
2023/02/27 03:43:05;;;;;;;5.87;3.12;;;;;;;3.92;59.40;99943.56;4488436;31;20092;-92
2023/02/27 03:45:33;;;;;;;6.45;3.20;;;;;;;3.99;59.41;99944.41;4491928;31;20092;-93
2023/02/27 03:47:59;;;;;;;5.15;2.47;;;;;;;3.86;59.40;99943.59;4491949;31;20717;-92
2023/02/27 03:50:34;;;;;;;5.45;2.55;;;;;;;4.27;59.42;99945.22;4474179;32;20781;-91
2023/02/27 03:53:00;;;;;;;4.97;2.35;;;;;;;4.28;59.42;99944.34;4485272;31;20080;-91
2023/02/27 03:55:34;;;;;;;6.60;2.97;;;;;;;4.13;59.41;99944.38;4468988;31;20110;-91
2023/02/27 03:57:59;;;;;;;4.40;2.55;;;;;;;4.04;59.40;99953.00;4464898;32;20182;-91
2023/02/27 04:00:25;;;;;;;4.90;2.53;;;;;;;4.22;59.42;99944.34;4485131;31;20092;-92
2023/02/27 04:02:51;;;;;;;5.53;2.47;;;;;;;4.27;59.42;99946.06;4477318;31;20151;-93
2023/02/27 04:05:17;;;;;;;4.35;2.25;;;;;;;4.16;59.41;99950.38;4474895;31;20851;-92
2023/02/27 04:07:46;;;;;;;4.35;2.22;;;;;;;3.99;59.41;99949.56;4466143;32;20113;-93
2023/02/27 04:10:23;;;;;;;4.80;2.28;;;;;;;4.42;59.43;99941.69;4487815;31;20124;-92
2023/02/27 04:13:10;;;;;;;5.43;2.60;;;;;;;4.42;59.42;99949.44;4485961;31;20170;-92
2023/02/27 04:15:47;;;;;;;3.55;2.03;;;;;;;4.18;59.41;99948.66;4477979;31;20080;-92
2023/02/27 04:18:31;;;;;;;7.12;2.87;;;;;;;3.99;59.41;99949.56;4474111;31;20108;-93
2023/02/27 04:21:23;;;;;;;6.37;2.58;;;;;;;4.17;59.41;99953.81;4489123;31;20124;-90
2023/02/27 04:23:54;;;;;;;4.80;2.25;;;;;;;4.07;59.41;99952.12;4485923;31;20110;-90
2023/02/27 04:26:47;;;;;;;3.15;1.87;;;;;;;4.20;59.42;99957.25;4473543;31;20140;-91
2023/02/27 04:29:12;;;;;;;11.45;2.25;;;;;;;4.12;59.42;99960.72;4445534;32;20097;-90
2023/02/27 04:31:45;;;;;;;9.85;3.92;;;;;;;4.22;59.41;99960.66;4489907;32;20145;-90
2023/02/27 04:34:16;;;;;;;28.95;11.10;;;;;;;4.27;59.42;99956.37;4469717;32;20114;-91
2023/02/27 04:36:47;;;;;;;27.92;11.75;;;;;;;4.16;59.42;99972.72;4472457;32;20106;-91
2023/02/27 04:39:25;;;;;;;18.45;8.45;;;;;;;4.26;59.41;99964.97;4467134;31;20477;-91
2023/02/27 04:41:54;;;;;;;11.75;6.18;;;;;;;4.23;59.42;99964.09;4472962;32;20131;-92
2023/02/27 04:44:20;;;;;;;4.95;2.95;;;;;;;4.16;59.41;99963.25;4475069;31;20520;-92
2023/02/27 04:46:45;;;;;;;5.60;2.37;;;;;;;4.16;59.41;99964.97;4467422;32;20096;-91
2023/02/27 04:49:18;;;;;;;5.25;2.40;;;;;;;4.08;59.41;99971.88;4474848;31;20093;-91
2023/02/27 04:52:14;;;;;;;5.10;2.08;;;;;;;4.04;59.40;99975.34;4472318;32;20100;-90
2023/02/27 04:54:45;;;;;;;5.70;2.20;;;;;;;3.87;59.39;99973.62;4459981;32;20096;-91
2023/02/27 04:57:12;;;;;;;5.87;2.85;;;;;;;3.78;59.39;99980.50;4484009;31;20475;-92
2023/02/27 04:59:42;;;;;;;3.42;1.85;;;;;;;3.84;59.40;99981.38;4468227;31;20100;-93
2023/02/27 05:02:12;;;;;;;4.30;2.15;;;;;;;3.89;59.39;99982.22;4474979;31;20108;-92
2023/02/27 05:04:39;;;;;;;2.65;1.50;;;;;;;3.83;59.40;99977.06;4479657;32;20457;-91
2023/02/27 05:07:05;;;;;;;4.15;2.35;;;;;;;3.87;59.39;99976.22;4471165;32;20064;-92
2023/02/27 05:09:37;;;;;;;5.97;1.80;;;;;;;3.69;59.39;99986.50;4466242;31;20100;-92
2023/02/27 05:12:24;;;;;;;6.18;2.25;;;;;;;3.79;59.40;99989.97;4474509;31;20147;-91
2023/02/27 05:14:58;;;;;;;4.37;2.25;;;;;;;3.63;59.38;99996.81;4489045;31;20145;-91
2023/02/27 05:17:33;;;;;;;5.22;2.08;;;;;;;3.69;59.39;100005.41;4458668;32;20145;-88
2023/02/27 05:19:58;;;;;;;3.67;1.92;;;;;;;3.72;59.39;100011.41;4485916;31;20122;-87
2023/02/27 05:22:38;;;;;;;4.25;2.15;;;;;;;3.55;59.38;100017.41;4464536;32;20105;-92
2023/02/27 05:25:11;;;;;;;4.95;2.30;;;;;;;3.58;59.38;100017.41;4464020;31;20096;-89
2023/02/27 05:27:40;;;;;;;3.67;1.90;;;;;;;3.56;59.38;100016.56;4471278;32;20092;-89
2023/02/27 05:30:32;;;;;;;5.05;2.47;;;;;;;3.89;59.40;100020.84;4483901;32;20138;-88
2023/02/27 05:33:28;;;;;;;6.03;2.05;;;;;;;3.77;59.39;100022.53;4484399;31;20424;-87
2023/02/27 05:36:21;;;;;;;6.87;2.92;;;;;;;3.65;59.39;100031.16;4476014;32;20088;-88
2023/02/27 05:38:49;;;;;;;4.32;2.47;;;;;;;3.85;59.40;100029.44;4484218;31;20115;-88
2023/02/27 05:41:30;;;;;;;4.20;2.05;;;;;;;3.80;59.39;100031.16;4471656;31;20104;-89
2023/02/27 05:44:21;;;;;;;6.85;2.22;;;;;;;3.82;59.39;100037.16;4477737;32;20373;-89
2023/02/27 05:46:58;;;;;;;5.82;2.17;;;;;;;3.91;59.40;100033.72;4484933;31;20587;-89
2023/02/27 05:49:26;;;;;;;6.75;2.80;;;;;;;3.76;59.38;100041.44;4471444;32;20102;-87
2023/02/27 05:51:52;;;;;;;5.68;2.42;;;;;;;3.87;59.39;100039.72;4474027;31;20151;-87
2023/02/27 05:54:42;;;;;;;5.53;2.35;;;;;;;3.94;59.40;100051.72;4484760;32;20126;-87
2023/02/27 05:57:15;;;;;;;3.87;2.22;;;;;;;3.83;59.40;100048.31;4477351;31;20118;-87
2023/02/27 06:00:01;;;;;;;5.57;2.80;;;;;;;3.83;59.40;100059.47;4471265;32;20129;-87
2023/02/27 06:02:27;;;;;;;4.70;2.67;;;;;;;3.82;59.39;100060.34;4483652;31;20096;-87
2023/02/27 06:04:53;;;;;;;7.72;2.90;;;;;;;3.82;59.39;100060.34;4483732;32;20138;-87
2023/02/27 06:07:19;;;;;;;4.80;2.47;;;;;;;3.82;59.39;100062.06;4460487;31;20151;-86
2023/02/27 06:09:45;;;;;;;4.78;2.85;;;;;;;3.93;59.40;100066.31;4483616;31;20148;-86
2023/02/27 06:12:10;;;;;;;5.53;3.05;;;;;;;3.96;59.40;100073.19;4484845;31;20142;-88
2023/02/27 06:14:35;;;;;;;6.95;2.90;;;;;;;4.12;59.42;100079.22;4470436;31;20108;-87
2023/02/27 06:17:01;;;;;;;8.65;3.22;;;;;;;3.92;59.41;100081.78;4476263;31;20104;-87
2023/02/27 06:19:26;;;;;;;7.20;2.30;;;;;;;4.04;59.40;100086.09;4485304;31;20143;-87
2023/02/27 06:21:52;;;;;;;5.18;2.35;;;;;;;3.92;59.40;100082.62;4470461;32;20116;-87
2023/02/27 06:24:17;;;;;;;6.20;2.97;;;;;;;4.12;59.42;100089.50;4470612;31;20134;-87
2023/02/27 06:26:42;;;;;;;6.50;2.65;;;;;;;3.82;59.39;100095.53;4485104;31;20109;-88
2023/02/27 06:29:08;;;;;;;5.65;2.85;;;;;;;3.99;59.40;100104.94;4470547;32;20093;-87
2023/02/27 06:31:33;;;;;;;9.52;2.70;;;;;;;3.89;59.39;100107.53;4483584;31;20155;-87
2023/02/27 06:33:59;;;;;;;10.93;2.78;;;;;;;4.06;59.41;100116.13;4470467;32;20123;-87
2023/02/27 06:36:24;;;;;;;6.78;2.03;;;;;;;4.15;59.41;100117.84;4467710;32;21881;-87
2023/02/27 06:38:50;;;;;;;5.10;2.90;;;;;;;4.23;59.41;100129.00;4483805;32;20665;-88
2023/02/27 06:41:15;;;;;;;4.45;1.90;;;;;;;4.36;59.43;100140.16;4481635;32;20354;-88
2023/02/27 06:43:40;;;;;;;4.78;2.20;;;;;;;4.34;59.42;100140.19;4484548;31;20116;-88
2023/02/27 06:46:07;;;;;;;3.78;1.90;;;;;;;4.42;59.43;100141.03;4483655;32;20154;-88
2023/02/27 06:48:32;;;;;;;4.40;2.12;;;;;;;4.54;59.43;100135.87;4470571;32;20122;-87
2023/02/27 06:50:58;;;;;;;6.93;2.28;;;;;;;4.45;59.43;100143.59;4484348;31;20108;-87
2023/02/27 06:53:23;;;;;;;3.83;1.60;;;;;;;4.63;59.44;100148.72;4493121;31;20123;-88
2023/02/27 06:55:49;;;;;;;4.37;1.80;;;;;;;4.70;59.44;100143.56;4472988;31;20104;-87
2023/02/27 06:58:15;;;;;;;5.65;2.20;;;;;;;4.74;59.45;100146.16;4470477;32;20433;-87
2023/02/27 07:00:40;;;;;;;4.90;1.58;;;;;;;4.91;59.45;100152.09;4471990;31;20466;-88
2023/02/27 07:03:06;;;;;;;5.40;1.60;;;;;;;5.09;59.47;100150.34;4476699;32;20719;-87
2023/02/27 07:05:31;;;;;;;2.78;1.35;;;;;;;5.04;59.46;100152.09;4480693;32;20395;-88
2023/02/27 07:07:57;;;;;;;6.45;1.80;;;;;;;5.03;59.46;100146.06;4470397;32;20112;-88
2023/02/27 07:10:22;;;;;;;5.78;1.98;;;;;;;5.26;59.48;100151.12;4480777;32;20485;-88
2023/02/27 07:12:48;;;;;;;4.25;1.80;;;;;;;5.47;59.49;100153.63;4470374;32;20095;-88
2023/02/27 07:15:13;;;;;;;3.90;1.85;;;;;;;5.41;59.48;100151.06;4486108;31;20083;-88
2023/02/27 07:17:38;;;;;;;5.05;1.62;;;;;;;5.55;59.49;100157.03;4489472;31;20433;-88
2023/02/27 07:20:06;;;;;;;6.22;2.20;;;;;;;5.44;59.48;100161.41;4483252;32;20096;-88
2023/02/27 07:22:31;;;;;;;5.18;2.00;;;;;;;5.60;59.49;100164.75;4470317;32;20122;-88
2023/02/27 07:24:57;;;;;;;3.15;1.55;;;;;;;5.68;59.50;100164.69;4472625;31;20396;-88
2023/02/27 07:27:22;;;;;;;2.70;1.77;;;;;;;5.85;59.51;100160.28;4469127;32;20219;-87
2023/02/27 07:29:48;;;;;;;2.60;1.40;;;;;;;5.88;59.51;100162.84;4480456;31;20276;-88
2023/02/27 07:32:13;;;;;;;4.03;1.85;;;;;;;5.93;59.51;100165.47;4483082;32;20369;-89
2023/02/27 07:34:38;;;;;;;3.92;0.95;;;;;;;5.94;59.51;100164.59;4482982;31;20112;-88
2023/02/27 07:37:04;;;;;;;5.05;1.23;;;;;;;5.99;59.52;100170.56;4483087;32;20145;-87
2023/02/27 07:39:29;;;;;;;4.25;1.58;;;;;;;6.01;59.52;100172.28;4483040;31;20503;-88
2023/02/27 07:41:55;;;;;;;1.87;1.10;;;;;;;5.95;59.51;100171.47;4482900;32;20429;-88
2023/02/27 07:44:20;;;;;;;1.98;1.10;;;;;;;6.20;59.52;100172.16;4482602;31;20514;-87
2023/02/27 07:46:46;;;;;;;3.08;1.70;;;;;;;6.33;59.53;100179.78;4484022;32;20524;-88
2023/02/27 07:49:11;;;;;;;3.45;1.15;;;;;;;6.41;59.54;100174.56;4482686;32;20145;-88
2023/02/27 07:51:37;;;;;;;2.67;1.00;;;;;;;6.57;59.54;100175.28;4483035;32;20114;-88
2023/02/27 07:54:02;;;;;;;2.28;1.10;;;;;;;6.68;59.56;100178.66;4482596;31;20139;-87
2023/02/27 07:56:29;;;;;;;5.00;1.10;;;;;;;6.62;59.55;100179.53;4482703;32;20137;-88
2023/02/27 07:58:54;;;;;;;2.15;0.93;;;;;;;6.64;59.55;100179.56;4483855;31;20622;-88
2023/02/27 08:01:19;;;;;;;2.33;1.02;;;;;;;6.76;59.56;100182.87;4483053;32;20084;-87
2023/02/27 08:03:45;;;;;;;5.03;1.30;;;;;;;6.80;59.57;100183.69;4482613;32;20134;-88
2023/02/27 08:06:10;;;;;;;2.65;0.98;;;;;;;6.95;59.57;100191.31;4469821;32;20140;-88
2023/02/27 08:08:36;;;;;;;2.75;0.90;;;;;;;6.92;59.57;100188.75;4472148;31;20132;-88
2023/02/27 08:11:01;;;;;;;1.98;1.05;;;;;;;6.92;59.56;100203.44;4491085;31;20185;-88
2023/02/27 08:13:26;;;;;;;2.20;1.37;;;;;;;6.87;59.56;100197.44;4482557;31;20449;-88
2023/02/27 08:15:53;;;;;;;3.50;1.40;;;;;;;6.63;59.55;100201.97;4469562;32;20188;-88
2023/02/27 08:18:19;;;;;;;2.42;1.12;;;;;;;6.94;59.57;100210.28;4482564;32;20566;-88
2023/02/27 08:20:44;;;;;;;2.25;1.10;;;;;;;7.02;59.58;100211.06;4456623;32;20620;-88
2023/02/27 08:23:10;;;;;;;2.22;1.08;;;;;;;7.19;59.59;100210.03;4484441;31;20122;-88
2023/02/27 08:25:36;;;;;;;3.75;1.08;;;;;;;6.99;59.57;100221.47;4484753;31;20699;-88
2023/02/27 08:28:01;;;;;;;2.40;1.10;;;;;;;7.07;59.58;100229.12;4485943;31;20135;-88
2023/02/27 08:30:27;;;;;;;7.40;1.00;;;;;;;7.21;59.58;100219.50;4471813;32;20080;-88
2023/02/27 08:32:53;;;;;;;3.83;1.30;;;;;;;7.18;59.59;100223.87;4489554;31;20489;-89
2023/02/27 08:35:18;;;;;;;2.40;0.82;;;;;;;7.31;59.60;100226.28;4459111;32;20134;-88
2023/02/27 08:37:43;;;;;;;2.00;1.30;;;;;;;7.37;59.59;100231.41;4482921;31;20156;-88
2023/02/27 08:40:09;;;;;;;4.68;1.95;;;;;;;7.26;59.59;100225.47;4471779;32;20189;-88
2023/02/27 08:42:35;;;;;;;2.08;1.10;;;;;;;7.24;59.58;100226.38;4472482;31;20155;-88
2023/02/27 08:45:01;;;;;;;4.75;1.73;;;;;;;7.37;59.59;100227.97;4471609;32;20108;-88
2023/02/27 08:47:27;;;;;;;5.35;1.65;;;;;;;7.35;59.59;100232.31;4485774;31;20115;-89
2023/02/27 08:49:52;;;;;;;9.32;1.62;;;;;;;7.66;59.61;100232.81;4484474;32;20169;-88
2023/02/27 08:52:17;;;;;;;4.03;1.35;;;;;;;7.60;59.61;100230.28;4484296;31;20114;-87
2023/02/27 08:54:43;;;;;;;2.87;1.20;;;;;;;7.39;59.60;100229.66;4484392;32;20112;-88
2023/02/27 08:57:08;;;;;;;5.70;1.58;;;;;;;7.43;59.60;100235.66;4471292;31;20127;-88
2023/02/27 08:59:34;;;;;;;3.08;1.00;;;;;;;7.31;59.59;100238.38;4484320;32;20091;-88
2023/02/27 09:01:59;;;;;;;9.57;2.05;;;;;;;7.28;59.59;100243.59;4471176;31;20267;-89
2023/02/27 09:04:25;;;;;;;3.85;1.17;;;;;;;7.38;59.60;100247.81;4478796;31;20200;-87
2023/02/27 09:06:52;;;;;;;2.28;1.12;;;;;;;7.17;59.58;100246.31;4474225;31;20160;-87
2023/02/27 09:09:17;;;;;;;3.95;1.40;;;;;;;7.07;59.57;100248.09;4471772;32;20100;-88
2023/02/27 09:11:45;;;;;;;1.98;1.10;;;;;;;7.17;59.58;100255.81;4487098;31;20214;-88
2023/02/27 09:14:10;;;;;;;4.00;1.45;;;;;;;7.21;59.58;100260.94;4474601;31;20111;-87
2023/02/27 09:16:36;;;;;;;3.00;1.48;;;;;;;7.17;59.58;100264.44;4486779;31;20430;-87
2023/02/27 09:19:01;;;;;;;2.72;1.50;;;;;;;7.21;59.58;100260.06;4477081;32;20115;-88
2023/02/27 09:21:30;;;;;;;5.75;1.70;;;;;;;7.13;59.58;100267.06;4481896;32;20447;-86
2023/02/27 09:23:57;;;;;;;3.45;1.45;;;;;;;7.11;59.59;100261.06;4458278;32;20085;-87
2023/02/27 09:26:23;;;;;;;2.80;1.33;;;;;;;7.18;59.59;100263.56;4479526;31;20123;-88
2023/02/27 09:28:48;;;;;;;2.35;1.23;;;;;;;7.24;59.59;100267.81;4484452;32;20175;-87
2023/02/27 09:31:14;;;;;;;3.80;1.48;;;;;;;7.27;59.59;100266.03;4484153;31;20508;-88
2023/02/27 09:33:39;;;;;;;3.70;1.50;;;;;;;7.15;59.58;100266.19;4476150;31;20092;-88
2023/02/27 09:36:05;;;;;;;9.52;2.08;;;;;;;7.04;59.58;100261.09;4489207;31;20436;-88
2023/02/27 09:38:31;;;;;;;4.12;2.20;;;;;;;6.98;59.58;100271.50;4480659;32;20141;-88
2023/02/27 09:40:58;;;;;;;4.47;1.85;;;;;;;7.06;59.57;100267.09;4497154;31;20115;-88
2023/02/27 09:43:34;;;;;;;5.18;1.60;;;;;;;7.04;59.58;100262.81;4493208;31;20110;-88
2023/02/27 09:45:59;;;;;;;2.72;1.30;;;;;;;7.01;59.57;100270.63;4467916;32;106038;-88
2023/02/27 09:48:33;;;;;;;5.12;1.55;;;;;;;7.02;59.58;100270.59;4478669;31;20111;-88
2023/02/27 09:50:58;;;;;;;2.42;1.33;;;;;;;6.85;59.56;100280.22;4472622;32;20449;-88
2023/02/27 09:53:25;;;;;;;5.47;1.50;;;;;;;6.83;59.56;100283.72;4484225;31;20122;-88
2023/02/27 09:55:51;;;;;;;4.65;2.00;;;;;;;6.83;59.56;100284.56;4471354;32;20096;-87
2023/02/27 09:58:55;;;;;;;5.30;2.28;;;;;;;6.72;59.56;100282.06;4471698;32;20126;-88
2023/02/27 10:01:32;;;;;;;14.00;5.50;;;;;;;6.90;59.57;100282.81;4433844;32;20167;-88
2023/02/27 10:04:13;;;;;;;7.15;3.42;;;;;;;7.01;59.57;100278.38;4463197;32;20764;-88
2023/02/27 10:06:43;;;;;;;3.47;1.67;;;;;;;7.15;59.58;100286.03;4470918;31;20488;-87
2023/02/27 10:09:08;;;;;;;8.20;2.12;;;;;;;7.17;59.58;100285.13;4464782;31;20103;-87
2023/02/27 10:11:55;;;;;;;5.03;2.03;;;;;;;7.23;59.58;100284.22;4488986;31;20502;-88
2023/02/27 10:14:36;;;;;;;4.05;1.65;;;;;;;7.40;59.60;100292.69;4485340;31;20160;-87
2023/02/27 10:17:03;;;;;;;4.28;1.83;;;;;;;7.60;59.61;100282.97;4482296;32;20108;-87
2023/02/27 10:19:31;;;;;;;4.65;1.83;;;;;;;7.64;59.61;100289.81;4457865;31;20095;-87
2023/02/27 10:21:57;;;;;;;6.70;2.97;;;;;;;7.68;59.61;100283.72;4463825;31;20098;-88
2023/02/27 10:24:41;;;;;;;4.45;2.08;;;;;;;7.76;59.62;100285.34;4488266;31;20124;-88
2023/02/27 10:27:12;;;;;;;4.57;1.87;;;;;;;7.91;59.62;100287.78;4459358;32;20823;-88
2023/02/27 10:29:41;;;;;;;4.53;1.42;;;;;;;8.10;59.64;100283.22;4471109;31;20116;-87
2023/02/27 10:32:13;;;;;;;4.93;1.75;;;;;;;8.02;59.63;100289.34;4483882;32;20089;-87
2023/02/27 10:34:39;;;;;;;5.32;2.45;;;;;;;8.18;59.64;100284.81;4483552;31;20550;-87
2023/02/27 10:37:05;;;;;;;5.85;2.35;;;;;;;8.27;59.64;100286.41;4470670;32;20101;-87
2023/02/27 10:39:33;;;;;;;5.03;1.75;;;;;;;7.95;59.63;100282.53;4467275;31;20437;-87
2023/02/27 10:42:04;;;;;;;8.35;2.05;;;;;;;8.25;59.65;100277.78;4470947;32;20092;-88
2023/02/27 10:44:30;;;;;;;4.50;1.92;;;;;;;8.33;59.65;100275.97;4470940;31;20096;-87
2023/02/27 10:46:56;;;;;;;3.70;1.75;;;;;;;8.45;59.66;100270.63;4490685;31;20469;-87
2023/02/27 10:49:21;;;;;;;2.58;1.48;;;;;;;8.38;59.66;100273.34;4483880;32;20115;-87
2023/02/27 10:52:04;;;;;;;5.65;2.35;;;;;;;8.38;59.66;100270.75;4470624;32;20084;-87
2023/02/27 10:54:30;;;;;;;3.87;1.95;;;;;;;8.53;59.67;100271.37;4481205;32;20156;-87
2023/02/27 10:56:57;;;;;;;5.12;2.05;;;;;;;8.71;59.67;100278.00;4457496;31;20108;-88
2023/02/27 10:59:25;;;;;;;4.12;2.08;;;;;;;8.77;59.68;100274.47;4476327;31;20604;-87
2023/02/27 11:01:53;;;;;;;4.93;1.90;;;;;;;8.71;59.67;100270.22;4470144;31;20539;-87
2023/02/27 11:04:27;;;;;;;4.30;1.92;;;;;;;8.77;59.68;100270.13;4457701;32;20104;-87
2023/02/27 11:06:52;;;;;;;6.62;1.90;;;;;;;8.83;59.68;100272.62;4467771;31;20439;-87
2023/02/27 11:09:18;;;;;;;3.70;1.92;;;;;;;8.79;59.67;100270.97;4483698;32;20117;-87
2023/02/27 11:11:43;;;;;;;4.10;2.10;;;;;;;9.11;59.69;100270.41;4483385;31;20161;-87
2023/02/27 11:14:36;;;;;;;5.47;1.85;;;;;;;9.09;59.69;100273.91;4470071;32;24151;-87
2023/02/27 11:17:01;;;;;;;3.75;2.05;;;;;;;9.27;59.71;100277.94;4480829;32;20117;-87
2023/02/27 11:19:32;;;;;;;6.57;2.40;;;;;;;9.29;59.71;100273.56;4470542;31;20526;-87
2023/02/27 11:21:58;;;;;;;10.63;2.00;;;;;;;9.44;59.71;100274.13;4471410;32;20156;-88
2023/02/27 11:24:24;;;;;;;5.82;1.90;;;;;;;9.61;59.72;100281.59;4484010;31;20084;-88
2023/02/27 11:26:57;;;;;;;3.08;1.83;;;;;;;9.44;59.71;100281.91;4469634;32;23267;-88
2023/02/27 11:29:23;;;;;;;7.70;2.20;;;;;;;9.53;59.72;100275.69;4457399;32;20132;-88
2023/02/27 11:31:58;;;;;;;4.72;1.83;;;;;;;9.51;59.72;100277.47;4482974;32;20168;-88
2023/02/27 11:34:35;;;;;;;6.15;2.20;;;;;;;9.46;59.71;100284.47;4470238;31;20157;-87
2023/02/27 11:37:05;;;;;;;6.75;2.95;;;;;;;9.62;59.72;100277.25;4470334;32;20123;-87
2023/02/27 11:39:38;;;;;;;6.32;2.58;;;;;;;9.70;59.72;100272.75;4470727;31;20173;-87
2023/02/27 11:42:22;;;;;;;3.83;1.83;;;;;;;9.81;59.73;100281.19;4485719;31;20149;-88
2023/02/27 11:45:20;;;;;;;4.47;2.33;;;;;;;9.78;59.73;100282.13;4470818;32;20107;-88
2023/02/27 11:47:50;;;;;;;6.78;2.72;;;;;;;9.91;59.74;100274.06;4471347;32;20602;-87
2023/02/27 11:50:28;;;;;;;;;;;;;;;9.85;59.73;100270.69;4483180;32;20488;-87